Time;durP1;ratioP1;P1;durP2;ratioP2;P2;SDS_P1;SDS_P2;PMS_P1;PMS_P2;Temp;Humidity;BMP_temperature;BMP_pressure;BME280_temperature;BME280_humidity;BME280_pressure;Samples;Min_cycle;Max_cycle;Signal;HPM_P1;HPM_P2
2022/05/10 00:00:27;;;;;;;4.83;2.83;;;19.60;76.10;;;;;;5051038;28;20564;-78
2022/05/10 00:02:55;;;;;;;3.53;2.60;;;19.50;76.40;;;;;;5050970;28;20630;-78
2022/05/10 00:05:26;;;;;;;4.97;3.50;;;19.50;77.20;;;;;;5051303;28;20173;-77
2022/05/10 00:07:53;;;;;;;3.70;2.53;;;19.40;77.60;;;;;;5049838;28;20572;-77
2022/05/10 00:10:18;;;;;;;4.17;2.63;;;19.30;77.80;;;;;;5049381;28;20590;-77
2022/05/10 00:12:44;;;;;;;3.13;2.83;;;19.30;78.30;;;;;;5049363;28;20610;-77
2022/05/10 00:15:12;;;;;;;3.83;3.07;;;19.20;78.60;;;;;;5029787;28;20174;-78
2022/05/10 00:17:40;;;;;;;6.27;2.60;;;19.20;79.10;;;;;;5029901;28;20177;-77
2022/05/10 00:20:13;;;;;;;2.60;2.40;;;19.20;79.70;;;;;;5030915;28;20560;-77
2022/05/10 00:22:39;;;;;;;3.83;2.77;;;19.10;79.90;;;;;;5029706;28;20647;-78
2022/05/10 00:25:08;;;;;;;3.00;2.70;;;19.10;81.00;;;;;;5029313;28;20580;-78
2022/05/10 00:27:34;;;;;;;2.50;2.27;;;19.00;80.70;;;;;;5029968;28;20679;-78
2022/05/10 00:30:00;;;;;;;3.37;2.50;;;19.00;81.10;;;;;;5029557;28;20676;-78
2022/05/10 00:32:31;;;;;;;2.90;2.60;;;19.00;81.40;;;;;;5030954;28;20572;-77
2022/05/10 00:34:57;;;;;;;4.57;3.27;;;19.00;82.20;;;;;;5030606;28;20618;-77
2022/05/10 00:37:24;;;;;;;3.00;2.80;;;19.00;82.10;;;;;;5031034;28;20968;-78
2022/05/10 00:39:50;;;;;;;3.43;3.13;;;19.00;83.00;;;;;;5033927;28;20586;-78
2022/05/10 00:42:36;;;;;;;3.60;2.90;;;19.00;83.40;;;;;;5034733;28;20634;-77
2022/05/10 00:45:09;;;;;;;3.30;2.60;;;18.90;84.30;;;;;;5034251;28;20564;-77
2022/05/10 00:47:45;;;;;;;3.60;2.90;;;19.00;84.30;;;;;;5033556;28;20962;-77
2022/05/10 00:50:18;;;;;;;3.90;3.40;;;19.00;84.90;;;;;;5034359;28;20568;-77
2022/05/10 00:52:56;;;;;;;3.50;2.93;;;18.90;85.40;;;;;;5016883;28;20616;-77
2022/05/10 00:55:22;;;;;;;3.40;2.87;;;18.90;85.60;;;;;;5034476;28;20583;-76
2022/05/10 00:57:57;;;;;;;3.20;2.90;;;18.90;85.30;;;;;;5033384;28;20576;-77
2022/05/10 01:00:28;;;;;;;3.73;3.43;;;18.90;86.20;;;;;;5034300;28;20184;-77
2022/05/10 01:03:12;;;;;;;3.70;3.40;;;18.90;86.10;;;;;;5033789;28;20989;-77
2022/05/10 01:05:56;;;;;;;4.13;3.00;;;18.90;86.80;;;;;;5034148;28;20579;-77
2022/05/10 01:08:24;;;;;;;4.10;2.87;;;18.90;88.10;;;;;;5033921;28;21134;-77
2022/05/10 01:11:10;;;;;;;4.53;3.70;;;18.90;87.00;;;;;;5033683;28;20596;-77
2022/05/10 01:14:01;;;;;;;3.70;2.67;;;18.90;87.60;;;;;;5033655;28;20598;-77
2022/05/10 01:16:26;;;;;;;3.70;3.23;;;18.90;87.70;;;;;;5032916;28;20572;-78
2022/05/10 01:18:53;;;;;;;7.03;3.30;;;18.90;87.40;;;;;;5033977;28;20598;-77
2022/05/10 01:21:33;;;;;;;4.20;3.80;;;18.90;88.00;;;;;;5032253;28;20639;-77
2022/05/10 01:24:21;;;;;;;4.80;3.73;;;18.80;88.00;;;;;;5033237;28;20689;-77
2022/05/10 01:27:21;;;;;;;3.30;3.00;;;18.80;89.60;;;;;;5032912;28;20638;-77
2022/05/10 01:29:55;;;;;;;3.77;3.13;;;18.80;89.70;;;;;;5033167;28;20575;-77
2022/05/10 01:35:24;;;;;;;5.67;3.20;;;18.70;90.00;;;;;;5033905;28;20675;-78
2022/05/10 01:37:55;;;;;;;3.00;2.63;;;18.70;90.40;;;;;;5034770;28;20595;-77
2022/05/10 01:40:36;;;;;;;5.37;3.27;;;18.70;90.10;;;;;;5034057;28;20572;-77
2022/05/10 01:43:18;;;;;;;3.10;2.80;;;18.60;90.60;;;;;;5032665;28;20640;-78
2022/05/10 01:45:59;;;;;;;4.23;3.10;;;18.60;90.40;;;;;;5033398;28;20667;-77
2022/05/10 01:48:26;;;;;;;3.80;3.40;;;18.60;90.40;;;;;;5033443;28;20954;-77
2022/05/10 01:50:58;;;;;;;4.63;4.23;;;18.60;90.30;;;;;;5030519;28;21154;-77
2022/05/10 01:53:32;;;;;;;4.70;3.00;;;18.60;91.10;;;;;;5031339;28;20686;-77
2022/05/10 01:56:01;;;;;;;3.83;3.13;;;18.50;91.10;;;;;;5033339;28;21155;-77
2022/05/10 01:58:30;;;;;;;4.03;2.80;;;18.50;91.20;;;;;;5033462;28;20655;-77
2022/05/10 02:01:03;;;;;;;4.60;3.43;;;18.40;91.60;;;;;;5031747;28;20986;-77
2022/05/10 02:03:44;;;;;;;4.10;3.70;;;18.40;91.90;;;;;;5032671;28;20600;-77
2022/05/10 02:06:42;;;;;;;4.40;4.00;;;18.30;92.40;;;;;;5033310;28;20626;-77
2022/05/10 02:09:24;;;;;;;3.80;3.10;;;18.30;92.40;;;;;;5010735;28;20915;-77
2022/05/10 02:11:58;;;;;;;3.83;3.50;;;18.30;92.40;;;;;;5032958;28;20710;-77
2022/05/10 02:14:37;;;;;;;5.13;3.87;;;18.30;92.40;;;;;;5032643;28;20691;-77
2022/05/10 02:17:26;;;;;;;4.17;2.90;;;18.20;93.20;;;;;;5033118;28;20586;-77
2022/05/10 02:20:11;;;;;;;3.47;3.17;;;18.20;93.10;;;;;;5032685;28;20604;-77
2022/05/10 02:22:51;;;;;;;4.13;3.63;;;18.20;93.90;;;;;;5031330;28;20718;-77
2022/05/10 02:25:20;;;;;;;4.00;3.70;;;18.20;93.40;;;;;;5031218;28;21158;-77
2022/05/10 02:27:51;;;;;;;4.70;4.00;;;18.10;93.50;;;;;;5032875;28;20674;-77
2022/05/10 02:30:22;;;;;;;4.00;3.60;;;18.10;93.90;;;;;;5032517;28;20572;-77
2022/05/10 02:33:07;;;;;;;4.90;3.70;;;18.10;94.40;;;;;;5031242;28;21310;-76
2022/05/10 02:35:49;;;;;;;4.00;3.70;;;18.00;94.40;;;;;;5032514;28;20576;-77
2022/05/10 02:38:31;;;;;;;4.97;4.47;;;18.00;94.70;;;;;;5031649;28;20647;-77
2022/05/10 02:41:00;;;;;;;4.63;3.30;;;18.00;95.10;;;;;;5032137;28;20992;-77
2022/05/10 02:43:31;;;;;;;3.63;3.30;;;18.00;94.80;;;;;;5031987;28;20686;-77
2022/05/10 02:45:57;;;;;;;4.30;3.90;;;17.90;95.10;;;;;;5031250;28;20575;-77
2022/05/10 02:48:27;;;;;;;4.70;4.03;;;17.90;95.10;;;;;;5032532;28;20642;-77
2022/05/10 02:50:52;;;;;;;4.10;3.80;;;17.90;95.20;;;;;;5031441;28;20580;-77
2022/05/10 02:53:19;;;;;;;3.77;3.47;;;17.90;95.10;;;;;;5030424;28;20623;-77
2022/05/10 02:56:01;;;;;;;5.97;4.28;;;17.90;95.40;;;;;;5032302;28;20628;-77
2022/05/10 02:58:40;;;;;;;4.43;4.03;;;17.80;95.70;;;;;;5030933;28;20207;-77
2022/05/10 03:01:30;;;;;;;4.87;4.13;;;17.80;95.50;;;;;;5031626;28;20612;-76
2022/05/10 03:03:56;;;;;;;5.40;4.27;;;17.80;96.30;;;;;;5031649;28;20955;-76
2022/05/10 03:06:25;;;;;;;3.70;3.40;;;17.80;95.60;;;;;;5031984;28;20894;-76
2022/05/10 03:08:54;;;;;;;15.33;4.40;;;17.80;95.70;;;;;;5030740;28;20572;-76
2022/05/10 03:11:20;;;;;;;4.37;3.97;;;17.80;95.80;;;;;;5031918;28;21002;-76
2022/05/10 03:13:47;;;;;;;4.03;3.63;;;17.80;95.80;;;;;;5031094;28;20715;-77
2022/05/10 03:16:16;;;;;;;4.67;4.20;;;17.80;96.00;;;;;;5030668;28;20184;-76
2022/05/10 03:18:42;;;;;;;4.70;4.30;;;17.80;96.10;;;;;;5030674;28;20576;-77
2022/05/10 03:21:08;;;;;;;3.70;3.40;;;17.80;96.10;;;;;;5031589;28;21261;-76
2022/05/10 03:23:34;;;;;;;4.90;4.50;;;17.80;96.40;;;;;;5031289;28;20703;-76
2022/05/10 03:26:01;;;;;;;5.30;4.50;;;17.80;96.40;;;;;;5030513;28;20188;-76
2022/05/10 03:28:35;;;;;;;4.30;3.90;;;17.70;97.10;;;;;;5030667;28;20603;-76
2022/05/10 03:31:03;;;;;;;5.73;5.10;;;17.70;97.30;;;;;;5031371;28;20577;-76
2022/05/10 03:33:29;;;;;;;5.13;4.03;;;17.70;97.60;;;;;;5029677;28;21008;-76
2022/05/10 03:35:54;;;;;;;4.90;4.43;;;17.70;97.40;;;;;;5030394;28;20635;-76
2022/05/10 03:38:20;;;;;;;4.57;4.17;;;17.70;97.60;;;;;;5031698;28;20185;-76
2022/05/10 03:40:46;;;;;;;4.20;3.70;;;17.70;97.40;;;;;;5031218;28;20170;-76
2022/05/10 03:43:11;;;;;;;4.80;4.20;;;17.70;97.70;;;;;;5030897;28;20189;-76
2022/05/10 03:45:37;;;;;;;4.37;3.97;;;17.70;97.70;;;;;;5030318;28;20622;-76
2022/05/10 03:48:04;;;;;;;6.03;4.27;;;17.70;98.10;;;;;;5031396;28;20218;-76
2022/05/10 03:50:30;;;;;;;5.10;4.27;;;17.70;97.70;;;;;;5029953;28;20173;-76
2022/05/10 03:52:56;;;;;;;4.80;4.40;;;17.70;97.70;;;;;;5030796;28;20623;-76
2022/05/10 03:55:26;;;;;;;4.70;3.57;;;17.70;97.90;;;;;;5031510;28;20944;-76
2022/05/10 03:57:52;;;;;;;4.90;4.50;;;17.70;97.90;;;;;;5031463;28;20268;-76
2022/05/10 04:00:27;;;;;;;5.40;4.20;;;17.70;98.10;;;;;;5030783;28;20610;-75
2022/05/10 04:02:55;;;;;;;5.20;4.70;;;17.70;99.00;;;;;;5031010;28;20635;-76
2022/05/10 04:05:23;;;;;;;4.47;3.47;;;17.70;98.50;;;;;;5031452;28;20560;-76
2022/05/10 04:07:48;;;;;;;5.63;4.77;;;17.60;98.30;;;;;;5031316;28;20572;-76
2022/05/10 04:10:16;;;;;;;5.37;4.80;;;17.60;98.50;;;;;;5030906;28;20583;-76
2022/05/10 04:12:42;;;;;;;5.40;4.30;;;17.70;98.60;;;;;;5031316;28;20273;-76
2022/05/10 04:15:11;;;;;;;4.47;4.03;;;17.70;98.80;;;;;;5033437;28;20571;-76
2022/05/10 04:17:37;;;;;;;5.47;4.90;;;17.70;98.80;;;;;;5035000;28;20671;-76
2022/05/10 04:20:06;;;;;;;7.00;5.73;;;17.70;99.10;;;;;;5034391;28;20663;-76
2022/05/10 04:22:32;;;;;;;4.90;4.50;;;17.70;98.90;;;;;;5033562;28;20205;-76
2022/05/10 04:24:58;;;;;;;4.80;4.40;;;17.70;99.10;;;;;;5033423;28;20583;-76
2022/05/10 04:27:24;;;;;;;8.80;5.90;;;17.70;99.60;;;;;;5034977;28;20568;-76
2022/05/10 04:29:50;;;;;;;8.80;5.27;;;17.70;99.80;;;;;;5032772;28;20641;-76
2022/05/10 04:32:15;;;;;;;5.40;4.87;;;17.70;99.90;;;;;;5034972;28;20170;-76
2022/05/10 04:34:41;;;;;;;5.43;4.73;;;17.70;99.90;;;;;;5033245;28;20190;-76
2022/05/10 04:37:07;;;;;;;8.17;5.43;;;17.70;99.90;;;;;;5034821;28;21228;-76
2022/05/10 04:42:17;;;;;;;5.37;4.87;;;17.70;99.90;;;;;;5034805;28;20201;-76
2022/05/10 04:44:43;;;;;;;6.67;5.00;;;17.80;99.90;;;;;;5033928;28;20592;-76
2022/05/10 04:47:08;;;;;;;5.13;4.73;;;17.80;99.90;;;;;;5033564;28;20611;-76
2022/05/10 04:49:34;;;;;;;5.20;4.70;;;17.80;99.90;;;;;;5034622;28;20166;-76
2022/05/10 04:52:00;;;;;;;5.63;4.90;;;17.80;99.90;;;;;;5034323;28;20189;-76
2022/05/10 04:54:27;;;;;;;5.33;4.60;;;17.80;99.90;;;;;;5034223;28;20243;-76
2022/05/10 04:56:53;;;;;;;7.20;4.43;;;17.80;99.90;;;;;;5034668;28;20568;-77
2022/05/10 04:59:19;;;;;;;5.33;4.60;;;17.90;99.90;;;;;;5032970;28;20576;-77
2022/05/10 05:01:44;;;;;;;6.43;5.43;;;17.90;99.90;;;;;;5034161;28;20626;-77
2022/05/10 05:04:10;;;;;;;6.63;4.93;;;17.90;99.90;;;;;;5033733;28;20194;-77
2022/05/10 05:06:39;;;;;;;5.83;4.13;;;18.00;99.90;;;;;;5016671;28;20268;-77
2022/05/10 05:09:06;;;;;;;5.27;4.00;;;18.00;99.90;;;;;;5034252;28;20653;-77
2022/05/10 05:11:33;;;;;;;5.03;3.73;;;18.10;99.90;;;;;;5033734;28;20565;-78
2022/05/10 05:13:58;;;;;;;5.10;4.53;;;18.10;99.90;;;;;;5033413;28;20607;-78
2022/05/10 05:16:24;;;;;;;6.10;3.63;;;18.10;99.90;;;;;;5033928;28;21154;-78
2022/05/10 05:18:51;;;;;;;6.13;5.07;;;18.20;99.90;;;;;;5034107;28;20560;-78
2022/05/10 05:21:17;;;;;;;10.10;5.20;;;18.20;99.90;;;;;;5033345;28;20765;-78
2022/05/10 05:23:43;;;;;;;4.77;4.27;;;18.30;99.90;;;;;;5031772;28;20604;-77
2022/05/10 05:26:10;;;;;;;7.47;3.93;;;18.40;99.90;;;;;;5032429;28;21238;-77
2022/05/10 05:28:36;;;;;;;7.87;4.13;;;18.50;99.90;;;;;;5032570;28;20759;-77
2022/05/10 05:31:02;;;;;;;3.83;3.43;;;18.50;99.90;;;;;;5033790;28;20667;-77
2022/05/10 05:33:29;;;;;;;5.60;4.20;;;18.60;99.90;;;;;;5033300;28;20187;-77
2022/05/10 05:35:54;;;;;;;9.80;5.33;;;18.70;99.90;;;;;;5033865;28;20572;-78
2022/05/10 05:38:20;;;;;;;5.03;4.43;;;18.90;99.90;;;;;;5033623;28;21011;-78
2022/05/10 05:40:46;;;;;;;5.17;4.43;;;19.00;99.90;;;;;;5032474;28;20608;-78
2022/05/10 05:43:19;;;;;;;5.10;4.63;;;19.10;99.90;;;;;;5032287;28;20182;-78
2022/05/10 05:45:45;;;;;;;6.63;3.90;;;19.20;99.90;;;;;;5033256;28;20165;-78
2022/05/10 05:48:11;;;;;;;5.50;4.50;;;19.30;99.90;;;;;;5031367;28;20754;-77
2022/05/10 05:50:37;;;;;;;6.83;4.33;;;19.50;99.90;;;;;;5030973;28;21027;-78
2022/05/10 05:53:04;;;;;;;6.53;5.13;;;19.70;99.90;;;;;;5032088;28;20630;-77
2022/05/10 05:55:30;;;;;;;4.90;4.50;;;20.00;99.90;;;;;;5031544;28;20599;-78
2022/05/10 05:57:57;;;;;;;4.50;4.07;;;20.20;99.90;;;;;;5033116;28;20572;-78
2022/05/10 06:00:25;;;;;;;6.00;4.40;;;20.50;99.90;;;;;;5030419;28;20600;-77
2022/05/10 06:02:54;;;;;;;4.33;3.93;;;20.60;99.40;;;;;;5032761;28;20647;-77
2022/05/10 06:05:22;;;;;;;6.53;4.50;;;20.80;99.20;;;;;;5030952;28;20683;-78
2022/05/10 06:07:47;;;;;;;8.30;4.93;;;20.90;98.70;;;;;;5032760;28;20576;-78
2022/05/10 06:10:14;;;;;;;5.40;4.43;;;21.00;98.60;;;;;;5032107;28;21166;-77
2022/05/10 06:12:41;;;;;;;7.10;4.20;;;21.10;98.20;;;;;;5031882;28;20216;-76
2022/05/10 06:15:11;;;;;;;5.90;4.73;;;21.30;98.10;;;;;;5031946;28;20590;-76
2022/05/10 06:17:38;;;;;;;4.33;3.80;;;21.40;97.80;;;;;;5032546;28;21850;-77
2022/05/10 06:20:07;;;;;;;11.60;3.57;;;21.50;97.80;;;;;;5031983;28;21102;-77
2022/05/10 06:22:34;;;;;;;5.23;4.73;;;21.60;97.40;;;;;;5032280;28;20722;-77
2022/05/10 06:25:01;;;;;;;5.30;4.27;;;21.60;97.00;;;;;;5032038;28;20925;-77
2022/05/10 06:27:27;;;;;;;4.37;4.07;;;21.60;96.60;;;;;;5032293;28;20574;-77
2022/05/10 06:29:52;;;;;;;4.40;4.00;;;21.60;96.40;;;;;;5032339;28;20579;-77
2022/05/10 06:32:24;;;;;;;8.43;3.80;;;21.60;96.40;;;;;;5031129;28;20726;-77
2022/05/10 06:34:50;;;;;;;5.03;3.80;;;21.60;96.20;;;;;;5031749;28;20189;-77
2022/05/10 06:40:10;;;;;;;4.27;3.87;;;21.80;96.20;;;;;;5031719;28;20576;-77
2022/05/10 06:42:37;;;;;;;7.10;4.60;;;21.90;95.80;;;;;;5030167;28;20635;-77
2022/05/10 06:45:08;;;;;;;5.60;3.67;;;22.00;96.00;;;;;;5031473;28;20576;-77
2022/05/10 06:47:38;;;;;;;7.50;3.83;;;22.10;95.90;;;;;;5031822;28;20573;-78
2022/05/10 06:50:08;;;;;;;4.80;4.30;;;22.20;95.90;;;;;;5030167;28;21063;-78
2022/05/10 06:52:33;;;;;;;4.30;3.90;;;22.40;95.90;;;;;;5030199;28;20581;-77
2022/05/10 06:54:59;;;;;;;6.13;4.60;;;22.80;96.20;;;;;;5031119;28;20603;-77
2022/05/10 06:57:25;;;;;;;5.90;3.97;;;23.10;96.10;;;;;;5031382;28;20237;-78
2022/05/10 06:59:54;;;;;;;4.77;4.27;;;23.30;95.10;;;;;;5031367;28;20176;-78
2022/05/10 07:02:24;;;;;;;3.37;3.17;;;23.40;94.70;;;;;;5031623;28;20198;-78
2022/05/10 07:04:51;;;;;;;5.43;3.70;;;23.40;94.40;;;;;;5032427;28;20584;-77
2022/05/10 07:07:17;;;;;;;5.17;4.37;;;23.60;94.10;;;;;;5033447;28;21114;-71
2022/05/10 07:09:49;;;;;;;4.63;3.80;;;23.70;94.00;;;;;;5028707;28;20587;-77
2022/05/10 07:16:06;;;;;;;4.27;3.00;;;24.30;93.90;;;;;;4985860;28;20594;-73
2022/05/10 07:19:15;;;;;;;6.23;3.40;;;24.70;93.60;;;;;;4990461;28;20601;-73
2022/05/10 07:22:14;;;;;;;4.03;3.60;;;25.20;93.40;;;;;;4963643;28;20655;-73
2022/05/10 07:24:40;;;;;;;4.23;3.80;;;26.00;93.50;;;;;;4989169;28;20614;-72
2022/05/10 07:27:05;;;;;;;8.37;3.70;;;26.30;91.60;;;;;;5024080;28;20580;-72
2022/05/10 07:29:31;;;;;;;4.73;4.27;;;26.50;91.00;;;;;;5030373;28;20252;-73
2022/05/10 07:31:57;;;;;;;6.20;3.80;;;26.80;89.40;;;;;;5031010;28;20941;-73
2022/05/10 07:34:23;;;;;;;4.17;3.77;;;27.10;89.40;;;;;;5024323;28;20624;-73
2022/05/10 07:36:49;;;;;;;3.00;2.80;;;27.40;88.10;;;;;;5031118;28;20211;-73
2022/05/10 07:39:15;;;;;;;4.23;3.93;;;27.60;86.40;;;;;;5029793;28;20173;-73
2022/05/10 07:41:41;;;;;;;3.83;2.83;;;28.00;85.00;;;;;;5029988;28;20232;-73
2022/05/10 07:44:08;;;;;;;6.23;4.10;;;28.50;84.50;;;;;;5029446;28;20650;-74
2022/05/10 07:46:34;;;;;;;5.00;4.07;;;28.90;82.90;;;;;;5029726;28;20687;-73
2022/05/10 07:49:00;;;;;;;4.67;3.37;;;29.30;80.90;;;;;;5031057;28;20590;-74
2022/05/10 07:51:26;;;;;;;5.93;3.90;;;29.40;79.10;;;;;;5029624;28;20588;-73
2022/05/10 07:53:52;;;;;;;4.80;3.90;;;29.60;77.10;;;;;;5024800;28;20647;-73
2022/05/10 07:56:18;;;;;;;3.80;3.20;;;29.80;76.70;;;;;;5030435;28;20709;-73
2022/05/10 07:58:44;;;;;;;3.07;2.77;;;30.20;76.00;;;;;;5029981;28;20640;-74
2022/05/10 08:01:11;;;;;;;4.90;3.20;;;30.40;75.30;;;;;;5030769;28;20624;-73
2022/05/10 08:03:37;;;;;;;5.00;3.40;;;30.90;74.70;;;;;;5030426;28;20209;-73
2022/05/10 08:06:02;;;;;;;6.97;3.23;;;31.30;72.80;;;;;;5029398;28;20592;-73
2022/05/10 08:08:33;;;;;;;3.67;2.93;;;31.60;71.90;;;;;;5030732;28;20160;-73
2022/05/10 08:10:59;;;;;;;3.80;3.50;;;32.20;71.60;;;;;;5026767;28;20171;-73
2022/05/10 08:13:27;;;;;;;3.40;3.10;;;32.50;69.20;;;;;;5026017;28;20674;-73
2022/05/10 08:15:54;;;;;;;6.77;2.90;;;32.50;66.30;;;;;;5026195;28;20194;-74
2022/05/10 08:18:20;;;;;;;6.47;2.77;;;32.60;66.40;;;;;;5030380;28;20590;-70
2022/05/10 08:20:48;;;;;;;4.23;3.50;;;32.80;64.30;;;;;;5024602;28;20602;-71
2022/05/10 08:23:21;;;;;;;4.13;3.33;;;33.00;63.70;;;;;;5027681;28;21200;-71
2022/05/10 08:25:48;;;;;;;4.67;3.20;;;33.10;62.50;;;;;;5029427;28;20984;-72
2022/05/10 08:28:14;;;;;;;5.03;3.53;;;33.40;62.00;;;;;;5028816;28;20602;-72
2022/05/10 08:30:42;;;;;;;4.77;3.50;;;33.60;61.40;;;;;;5027390;28;20638;-72
2022/05/10 08:33:10;;;;;;;3.90;2.83;;;33.80;60.20;;;;;;5028394;28;20238;-72
2022/05/10 08:35:37;;;;;;;3.50;3.20;;;34.10;59.80;;;;;;5026245;28;20612;-72
2022/05/10 08:38:03;;;;;;;3.57;3.10;;;34.30;58.90;;;;;;5025467;28;20602;-72
2022/05/10 08:40:38;;;;;;;3.53;3.00;;;34.60;59.30;;;;;;5010945;28;21251;-72
2022/05/10 08:43:12;;;;;;;4.80;3.20;;;35.00;58.30;;;;;;5027516;28;21123;-72
2022/05/10 08:45:41;;;;;;;4.53;2.87;;;35.60;58.40;;;;;;5026368;28;20611;-72
2022/05/10 08:48:07;;;;;;;3.47;3.17;;;36.10;57.50;;;;;;5027493;28;20600;-73
2022/05/10 08:50:35;;;;;;;3.40;2.47;;;36.40;55.70;;;;;;5010817;28;20636;-72
2022/05/10 08:53:01;;;;;;;3.57;2.53;;;36.70;54.60;;;;;;5027950;28;20628;-74
2022/05/10 08:55:31;;;;;;;3.07;2.20;;;37.20;54.30;;;;;;5028891;28;20595;-74
2022/05/10 08:58:15;;;;;;;3.77;2.83;;;37.60;53.20;;;;;;5030188;28;20220;-73
2022/05/10 09:00:53;;;;;;;5.30;2.43;;;38.10;52.90;;;;;;5031730;28;20572;-73
2022/05/10 09:03:36;;;;;;;3.30;2.13;;;38.70;52.20;;;;;;5031231;28;20620;-73
2022/05/10 09:06:08;;;;;;;3.60;2.53;;;39.20;50.10;;;;;;5031797;28;20600;-73
2022/05/10 09:08:53;;;;;;;6.53;2.97;;;39.70;50.10;;;;;;5031358;28;20657;-73
2022/05/10 09:11:21;;;;;;;2.17;1.70;;;40.40;49.60;;;;;;5030862;28;20602;-73
2022/05/10 09:13:47;;;;;;;3.00;1.40;;;40.90;48.30;;;;;;5030784;28;20652;-73
2022/05/10 09:16:14;;;;;;;2.90;1.70;;;41.30;46.60;;;;;;5032198;28;20588;-74
2022/05/10 09:18:49;;;;;;;3.07;1.67;;;41.60;45.50;;;;;;5033671;28;20633;-74
2022/05/10 09:21:23;;;;;;;2.20;1.40;;;41.80;43.30;;;;;;5032918;28;20661;-74
2022/05/10 09:24:25;;;;;;;3.00;1.70;;;41.80;41.70;;;;;;5032345;28;20646;-73
2022/05/10 09:26:55;;;;;;;4.13;1.60;;;41.80;41.70;;;;;;5027191;28;21099;-74
2022/05/10 09:29:39;;;;;;;2.17;1.70;;;41.60;40.60;;;;;;5031976;28;20599;-73
2022/05/10 09:35:14;;;;;;;1.83;1.43;;;41.70;40.20;;;;;;5012709;28;20572;-74
2022/05/10 09:37:45;;;;;;;4.37;1.30;;;41.90;39.90;;;;;;5023995;28;20749;-73
2022/05/10 09:40:24;;;;;;;3.13;1.30;;;42.10;39.50;;;;;;5030236;28;20944;-74
2022/05/10 09:42:52;;;;;;;1.97;1.23;;;42.50;39.10;;;;;;5027258;28;20693;-74
2022/05/10 09:45:26;;;;;;;2.53;1.33;;;42.80;38.50;;;;;;5028732;28;21271;-74
2022/05/10 09:48:17;;;;;;;3.30;1.47;;;42.90;37.60;;;;;;5030028;28;20608;-73
2022/05/10 09:50:50;;;;;;;2.37;1.43;;;43.00;36.80;;;;;;5040856;28;20615;-73
2022/05/10 09:53:22;;;;;;;3.23;1.20;;;43.30;36.70;;;;;;5032202;28;20635;-73
2022/05/10 09:56:02;;;;;;;2.00;1.40;;;43.30;36.30;;;;;;5033042;28;20580;-73
2022/05/10 09:58:34;;;;;;;2.33;1.43;;;43.50;36.10;;;;;;5032833;28;20939;-73
2022/05/10 10:01:04;;;;;;;2.80;1.43;;;43.30;34.70;;;;;;5031480;28;20576;-73
2022/05/10 10:03:32;;;;;;;2.10;1.00;;;42.80;34.20;;;;;;5031845;28;20604;-73
2022/05/10 10:06:19;;;;;;;2.40;1.10;;;42.30;33.80;;;;;;5032553;28;20620;-74
2022/05/10 10:08:54;;;;;;;1.70;1.30;;;41.90;33.40;;;;;;5032708;28;20587;-74
2022/05/10 10:11:23;;;;;;;1.90;1.33;;;41.50;33.40;;;;;;5027295;28;21200;-74
2022/05/10 10:13:52;;;;;;;2.27;1.10;;;41.30;33.20;;;;;;5031774;28;21082;-73
2022/05/10 10:16:24;;;;;;;2.13;1.10;;;41.20;33.60;;;;;;5024934;28;20593;-73
2022/05/10 10:18:54;;;;;;;4.67;1.50;;;41.20;33.30;;;;;;5031986;28;20610;-73
2022/05/10 10:21:45;;;;;;;2.40;1.03;;;41.30;33.20;;;;;;5032281;28;20676;-74
2022/05/10 10:24:24;;;;;;;1.77;1.03;;;41.30;33.00;;;;;;5021144;28;20678;-73
2022/05/10 10:26:56;;;;;;;1.70;1.00;;;41.30;32.60;;;;;;5012907;28;20915;-73
2022/05/10 10:29:40;;;;;;;1.87;1.43;;;41.60;32.40;;;;;;5011241;28;20666;-72
2022/05/10 10:32:14;;;;;;;1.50;0.97;;;41.80;31.90;;;;;;5011217;28;20672;-73
2022/05/10 10:34:51;;;;;;;4.33;1.30;;;42.00;31.70;;;;;;5012079;28;20628;-73
2022/05/10 10:37:40;;;;;;;4.90;2.33;;;42.00;31.60;;;;;;5012374;28;20565;-72
2022/05/10 10:40:17;;;;;;;6.40;2.60;;;42.00;31.90;;;;;;5016503;28;20616;-72
2022/05/10 10:43:13;;;;;;;8.47;2.60;;;41.70;30.90;;;;;;5032188;28;20977;-72
2022/05/10 10:45:51;;;;;;;4.37;2.20;;;41.30;30.90;;;;;;5032156;28;21150;-72
2022/05/10 10:48:25;;;;;;;4.63;1.93;;;40.80;30.60;;;;;;5030678;28;20565;-72
2022/05/10 10:50:52;;;;;;;2.80;1.20;;;40.40;30.60;;;;;;5031479;28;20634;-72
2022/05/10 10:53:20;;;;;;;5.93;1.83;;;39.90;30.60;;;;;;5030244;28;20656;-72
2022/05/10 10:56:08;;;;;;;4.97;2.13;;;39.40;30.80;;;;;;4997288;28;21005;-72
2022/05/10 10:58:49;;;;;;;2.67;1.70;;;38.90;30.80;;;;;;5028998;28;20676;-72
2022/05/10 11:01:53;;;;;;;2.10;1.77;;;38.50;31.10;;;;;;5026763;28;20658;-72
2022/05/10 11:04:28;;;;;;;4.30;3.33;;;38.10;31.40;;;;;;5026977;28;20697;-72
2022/05/10 11:06:54;;;;;;;3.23;2.27;;;37.80;31.70;;;;;;5031306;28;21138;-73
2022/05/10 11:09:37;;;;;;;3.97;2.20;;;37.50;31.70;;;;;;5031292;28;20987;-72
2022/05/10 11:12:21;;;;;;;2.37;1.73;;;37.20;31.50;;;;;;5031587;28;20623;-73
2022/05/10 11:15:01;;;;;;;2.40;1.37;;;36.80;31.50;;;;;;5040250;28;20579;-72
2022/05/10 11:17:32;;;;;;;2.47;1.00;;;36.30;31.60;;;;;;5051000;28;20586;-72
2022/05/10 11:20:04;;;;;;;3.30;1.70;;;35.90;31.80;;;;;;5049791;28;20562;-73
2022/05/10 11:22:33;;;;;;;2.90;1.40;;;35.50;32.20;;;;;;5054754;28;20588;-73
2022/05/10 11:24:58;;;;;;;3.97;1.90;;;35.00;32.40;;;;;;5040194;28;20902;-73
2022/05/10 11:27:48;;;;;;;2.10;1.73;;;34.70;32.60;;;;;;5030598;28;20604;-73
2022/05/10 11:30:25;;;;;;;2.50;1.60;;;34.30;32.90;;;;;;5029207;28;20175;-74
2022/05/10 11:33:03;;;;;;;4.03;2.43;;;33.90;33.10;;;;;;5036006;28;21251;-74
2022/05/10 11:35:54;;;;;;;3.87;1.83;;;33.60;33.70;;;;;;5031043;28;20572;-74
2022/05/10 11:38:58;;;;;;;2.20;1.60;;;33.30;33.80;;;;;;5030089;28;20572;-74
2022/05/10 11:42:02;;;;;;;3.70;1.43;;;33.10;34.30;;;;;;5027793;28;21341;-73
2022/05/10 11:44:54;;;;;;;3.23;2.00;;;33.00;34.80;;;;;;5028824;28;20977;-74
2022/05/10 11:47:54;;;;;;;5.03;1.90;;;33.00;35.00;;;;;;5031247;28;21158;-74
2022/05/10 11:50:26;;;;;;;3.90;2.30;;;33.00;35.10;;;;;;5034050;28;20596;-73
2022/05/10 11:53:16;;;;;;;4.43;1.47;;;33.20;35.40;;;;;;5032356;28;20646;-72
2022/05/10 11:55:59;;;;;;;2.87;1.73;;;33.30;35.80;;;;;;5029759;28;20615;-73
2022/05/10 11:58:27;;;;;;;3.40;2.07;;;33.60;35.90;;;;;;5029862;28;20893;-72
2022/05/10 12:01:04;;;;;;;4.57;1.40;;;34.00;36.00;;;;;;5030092;28;20570;-73
2022/05/10 12:03:49;;;;;;;4.47;1.83;;;34.30;35.90;;;;;;5030569;28;20599;-73
2022/05/10 12:06:24;;;;;;;4.63;2.50;;;34.40;35.20;;;;;;5030153;28;20620;-73
2022/05/10 12:09:01;;;;;;;3.30;1.47;;;34.50;35.00;;;;;;5011366;28;20666;-73
2022/05/10 12:11:32;;;;;;;2.43;1.30;;;34.60;35.00;;;;;;5017592;28;20637;-73
2022/05/10 12:22:50;;;;;;;5.67;1.40;;;34.70;35.20;;;;;;5029524;28;21218;-73
2022/05/10 12:25:54;;;;;;;2.77;1.40;;;34.60;35.00;;;;;;5027402;28;20613;-73
2022/05/10 12:28:48;;;;;;;2.37;1.63;;;34.50;35.00;;;;;;5029105;28;20614;-73
2022/05/10 12:31:23;;;;;;;2.67;2.07;;;34.40;35.30;;;;;;5030211;28;20591;-73
2022/05/10 12:34:02;;;;;;;1.77;1.43;;;34.20;35.60;;;;;;5030534;28;20622;-73
2022/05/10 12:36:38;;;;;;;3.60;2.10;;;34.10;35.40;;;;;;5033082;28;21226;-73
2022/05/10 12:39:29;;;;;;;2.83;1.77;;;34.10;36.00;;;;;;5034525;28;20676;-72
2022/05/10 12:42:20;;;;;;;1.90;1.63;;;34.00;35.70;;;;;;5030497;28;20612;-73
2022/05/10 12:45:04;;;;;;;3.20;1.50;;;34.00;35.80;;;;;;5026572;28;20627;-73
2022/05/10 12:47:35;;;;;;;3.23;1.83;;;34.10;35.80;;;;;;5034082;28;20646;-72
2022/05/10 12:50:32;;;;;;;2.20;1.50;;;34.10;35.50;;;;;;5033754;28;20690;-72
2022/05/10 12:52:58;;;;;;;2.43;1.47;;;34.00;35.20;;;;;;5027877;28;20645;-73
2022/05/10 12:55:30;;;;;;;2.47;1.70;;;33.90;35.20;;;;;;5033765;28;20677;-73
2022/05/10 12:58:05;;;;;;;2.50;1.90;;;33.80;35.00;;;;;;5033826;28;20170;-73
2022/05/10 13:00:44;;;;;;;2.97;2.20;;;33.70;34.90;;;;;;5032815;28;20568;-73
2022/05/10 13:03:19;;;;;;;2.77;1.77;;;33.50;34.70;;;;;;5033386;28;20605;-72
2022/05/10 13:06:19;;;;;;;2.10;1.80;;;33.30;34.80;;;;;;5033861;28;20560;-73
2022/05/10 13:09:11;;;;;;;6.00;1.87;;;33.10;35.10;;;;;;5033883;28;20956;-73
2022/05/10 13:12:05;;;;;;;3.07;1.80;;;32.90;35.20;;;;;;5031335;28;20745;-73
2022/05/10 13:14:35;;;;;;;4.37;2.23;;;32.80;35.30;;;;;;5040134;28;20614;-73
2022/05/10 13:17:01;;;;;;;4.93;2.27;;;32.80;35.40;;;;;;5049895;28;21122;-73
2022/05/10 13:19:29;;;;;;;2.87;2.30;;;32.70;35.50;;;;;;5033705;28;20648;-74
2022/05/10 13:21:55;;;;;;;2.80;1.87;;;32.70;35.60;;;;;;5028553;28;20596;-74
2022/05/10 13:24:22;;;;;;;4.13;1.80;;;32.70;35.60;;;;;;5013936;28;21330;-73
2022/05/10 13:27:00;;;;;;;4.70;1.80;;;32.70;35.80;;;;;;5033050;28;20611;-73
2022/05/10 13:29:38;;;;;;;1.83;1.67;;;32.70;35.80;;;;;;5031610;28;20596;-73
2022/05/10 13:32:09;;;;;;;5.60;1.70;;;32.60;35.70;;;;;;5024767;28;20643;-73
2022/05/10 13:34:46;;;;;;;2.77;2.00;;;32.60;35.80;;;;;;5032200;28;20624;-73
2022/05/10 13:37:26;;;;;;;2.77;1.80;;;32.60;36.10;;;;;;5033231;28;20594;-73